Accedi per prenotare

Caricamento...

Situazione Metar e Taf aeroporto Pisa - Effemeridi Aeroporto Lucca

[Source: ADDS]
METAR
LIRP 182115Z 11005KT 9999 FEW020 SCT035 20/19 Q1013 NOSIG =
AMD LIRP 181830Z 1818/1918 26005KT 9999 SCT030 SCT060 TEMPO 1900/1908 21015G30KT 4000 SHRA FEW015CB BKN025 TEMPO 1908/1914 24020G30KT 3000 TSRA FEW010CB BKN020 BECMG 1915/1918 9999 FEW030 SCT080
TAF
AMD LIRP 181830Z 1818/1918 26005KT 9999 SCT030 SCT060 TEMPO 1900/1908 21015G30KT 4000 SHRA FEW015CB BKN025 TEMPO 1908/1914 24020G30KT 3000 TSRA FEW010CB BKN020 BECMG 1915/1918 9999 FEW030 SCT080 =
SR / SS: 05:03 / 17:24 UTC (Effemeridi LIQL 2021-09-18)